Time;durP1;ratioP1;P1;durP2;ratioP2;P2;SDS_P1;SDS_P2;PMS_P1;PMS_P2;Temp;Humidity;BMP_temperature;BMP_pressure;BME280_temperature;BME280_humidity;BME280_pressure;Samples;Min_cycle;Max_cycle;Signal;HPM_P1;HPM_P2
2023/05/13 00:02:08;;;;;;;9.48;6.50;;;;;;;;;;5065418;28;20051;-65
2023/05/13 00:04:35;;;;;;;9.18;5.70;;;;;;;;;;5062635;28;20139;-65
2023/05/13 00:07:02;;;;;;;10.15;5.43;;;;;;;;;;5056642;28;20045;-65
2023/05/13 00:09:29;;;;;;;8.43;6.10;;;;;;;;;;5065979;28;20041;-65
2023/05/13 00:11:57;;;;;;;9.55;5.80;;;;;;;;;;5065974;28;20052;-65
2023/05/13 00:14:24;;;;;;;13.50;5.97;;;;;;;;;;5066824;28;20060;-65
2023/05/13 00:16:51;;;;;;;8.70;5.90;;;;;;;;;;5065955;28;20393;-65
2023/05/13 00:19:20;;;;;;;7.75;5.25;;;;;;;;;;5064756;28;20045;-65
2023/05/13 00:21:47;;;;;;;8.20;5.93;;;;;;;;;;5068243;28;20126;-65
2023/05/13 00:24:14;;;;;;;9.20;5.75;;;;;;;;;;5068099;28;20071;-66
2023/05/13 00:26:42;;;;;;;8.95;5.93;;;;;;;;;;5069402;28;20048;-65
2023/05/13 00:29:09;;;;;;;10.13;6.30;;;;;;;;;;5068858;28;20442;-65
2023/05/13 00:31:36;;;;;;;9.93;6.32;;;;;;;;;;5060743;28;20059;-65
2023/05/13 00:34:04;;;;;;;10.15;6.75;;;;;;;;;;5061488;28;20066;-65
2023/05/13 00:36:33;;;;;;;8.20;6.18;;;;;;;;;;5068917;28;20124;-65
2023/05/13 00:39:00;;;;;;;8.82;5.80;;;;;;;;;;5061912;28;20424;-65
2023/05/13 00:41:28;;;;;;;9.15;5.53;;;;;;;;;;5067068;28;20054;-65
2023/05/13 00:43:56;;;;;;;9.85;6.10;;;;;;;;;;5069138;28;20048;-65
2023/05/13 00:46:23;;;;;;;9.35;5.82;;;;;;;;;;5068208;28;20087;-65
2023/05/13 00:48:50;;;;;;;8.55;5.35;;;;;;;;;;5067124;28;20048;-64
2023/05/13 00:51:18;;;;;;;8.20;5.22;;;;;;;;;;5066718;28;20063;-65
2023/05/13 00:53:46;;;;;;;10.00;5.93;;;;;;;;;;5065278;28;20074;-65
2023/05/13 00:56:14;;;;;;;8.48;5.80;;;;;;;;;;5065034;28;20053;-65
2023/05/13 00:58:41;;;;;;;9.30;5.70;;;;;;;;;;5062236;28;20057;-65
2023/05/13 01:01:12;;;;;;;8.40;5.53;;;;;;;;;;5061759;28;20412;-64
2023/05/13 01:03:44;;;;;;;8.70;5.65;;;;;;;;;;5067285;28;20067;-65
2023/05/13 01:06:13;;;;;;;9.68;5.07;;;;;;;;;;5066154;28;20037;-64
2023/05/13 01:08:44;;;;;;;9.35;5.45;;;;;;;;;;5071533;28;20511;-64
2023/05/13 01:11:14;;;;;;;11.15;5.38;;;;;;;;;;5069540;28;20056;-65
2023/05/13 01:13:43;;;;;;;7.93;5.10;;;;;;;;;;5068650;28;20051;-66
2023/05/13 01:16:13;;;;;;;9.07;5.38;;;;;;;;;;5068489;28;20056;-65
2023/05/13 01:18:41;;;;;;;8.63;5.32;;;;;;;;;;5067882;28;20052;-65
2023/05/13 01:21:09;;;;;;;8.05;4.65;;;;;;;;;;5069626;28;20151;-64
2023/05/13 01:23:37;;;;;;;8.73;4.63;;;;;;;;;;5068091;28;20049;-64
2023/05/13 01:26:05;;;;;;;7.90;5.03;;;;;;;;;;5063996;28;20048;-65
2023/05/13 01:28:32;;;;;;;6.82;4.82;;;;;;;;;;5066207;28;20492;-64
2023/05/13 01:30:59;;;;;;;9.15;5.57;;;;;;;;;;5069381;28;20055;-64
2023/05/13 01:33:27;;;;;;;8.35;5.38;;;;;;;;;;5067745;28;20048;-65
2023/05/13 01:35:54;;;;;;;7.57;4.82;;;;;;;;;;5069432;28;20046;-64
2023/05/13 01:38:22;;;;;;;8.43;5.03;;;;;;;;;;5061278;28;20049;-65
2023/05/13 01:40:51;;;;;;;8.68;5.55;;;;;;;;;;5066288;28;20411;-65
2023/05/13 01:43:18;;;;;;;9.73;5.72;;;;;;;;;;5071662;28;20044;-65
2023/05/13 01:45:46;;;;;;;9.02;5.63;;;;;;;;;;5068273;28;20044;-65
2023/05/13 01:48:13;;;;;;;8.27;6.18;;;;;;;;;;5069103;28;20048;-65
2023/05/13 01:50:40;;;;;;;9.15;6.10;;;;;;;;;;5069544;28;20052;-65
2023/05/13 01:53:07;;;;;;;10.00;6.00;;;;;;;;;;5069404;28;20044;-65
2023/05/13 01:55:34;;;;;;;9.90;5.80;;;;;;;;;;5065401;28;20060;-64
2023/05/13 01:58:03;;;;;;;10.38;6.07;;;;;;;;;;5075704;28;20442;-65
2023/05/13 02:00:30;;;;;;;9.05;5.47;;;;;;;;;;5071412;28;20135;-64
2023/05/13 02:02:58;;;;;;;8.32;5.82;;;;;;;;;;5074274;28;20060;-65
2023/05/13 02:05:25;;;;;;;10.38;6.55;;;;;;;;;;5067411;28;20098;-64
2023/05/13 02:07:52;;;;;;;7.95;6.18;;;;;;;;;;5066097;28;20431;-64
2023/05/13 02:10:19;;;;;;;10.55;6.20;;;;;;;;;;5070670;28;20052;-64
2023/05/13 02:12:46;;;;;;;10.07;6.57;;;;;;;;;;5063075;28;20052;-65
2023/05/13 02:15:15;;;;;;;12.55;6.22;;;;;;;;;;5069320;28;20063;-65
2023/05/13 02:17:42;;;;;;;9.85;6.30;;;;;;;;;;5066931;28;20060;-64
2023/05/13 02:20:10;;;;;;;11.25;6.93;;;;;;;;;;5065879;28;20060;-64
2023/05/13 02:22:37;;;;;;;13.52;7.35;;;;;;;;;;5068096;28;20515;-64
2023/05/13 02:25:05;;;;;;;10.38;7.07;;;;;;;;;;5067382;28;20048;-64
2023/05/13 02:27:32;;;;;;;9.55;6.70;;;;;;;;;;5066273;28;20045;-64
2023/05/13 02:29:59;;;;;;;11.30;7.07;;;;;;;;;;5068123;28;20140;-64
2023/05/13 02:32:28;;;;;;;10.30;6.85;;;;;;;;;;5069969;28;20507;-65
2023/05/13 02:34:55;;;;;;;9.90;6.90;;;;;;;;;;5064503;28;20075;-65
2023/05/13 02:37:22;;;;;;;8.95;6.25;;;;;;;;;;5064178;28;20056;-65
2023/05/13 02:39:50;;;;;;;14.30;7.05;;;;;;;;;;5061256;28;20053;-65
2023/05/13 02:42:17;;;;;;;11.25;6.60;;;;;;;;;;5065413;28;20052;-64
2023/05/13 02:44:44;;;;;;;12.88;6.63;;;;;;;;;;5065152;28;20053;-65
2023/05/13 02:47:12;;;;;;;11.15;6.60;;;;;;;;;;5070700;28;20384;-64
2023/05/13 02:49:40;;;;;;;10.77;6.57;;;;;;;;;;5061779;28;20060;-65
2023/05/13 02:52:07;;;;;;;10.32;7.15;;;;;;;;;;5069256;28;20052;-64
2023/05/13 02:54:34;;;;;;;12.13;6.63;;;;;;;;;;5068808;28;20411;-65
2023/05/13 02:57:02;;;;;;;10.50;6.82;;;;;;;;;;5066398;28;20048;-64
2023/05/13 02:59:29;;;;;;;11.13;6.82;;;;;;;;;;5070665;28;20434;-64
2023/05/13 03:01:56;;;;;;;12.57;7.25;;;;;;;;;;5069697;28;20056;-64
2023/05/13 03:04:24;;;;;;;16.80;6.97;;;;;;;;;;5067793;28;20048;-64
2023/05/13 03:06:52;;;;;;;11.32;6.93;;;;;;;;;;5067642;28;20461;-64
2023/05/13 03:09:20;;;;;;;13.40;7.38;;;;;;;;;;5069831;28;20126;-64
2023/05/13 03:11:47;;;;;;;9.98;6.90;;;;;;;;;;5062888;28;20051;-65
2023/05/13 03:14:14;;;;;;;11.05;7.32;;;;;;;;;;5068742;28;20056;-64
2023/05/13 03:16:41;;;;;;;10.57;7.25;;;;;;;;;;5069397;28;20063;-64
2023/05/13 03:19:09;;;;;;;10.05;7.00;;;;;;;;;;5066719;28;20060;-65
2023/05/13 03:21:36;;;;;;;12.23;7.50;;;;;;;;;;5066289;28;20053;-64
2023/05/13 03:24:05;;;;;;;14.65;6.63;;;;;;;;;;5069947;28;20519;-65
2023/05/13 03:26:32;;;;;;;10.43;6.65;;;;;;;;;;5069217;28;20052;-65
2023/05/13 03:29:00;;;;;;;12.48;7.07;;;;;;;;;;5070450;28;20459;-65
2023/05/13 03:31:28;;;;;;;12.65;6.95;;;;;;;;;;5069018;28;20052;-65
2023/05/13 03:33:55;;;;;;;10.10;6.18;;;;;;;;;;5063719;28;20065;-64
2023/05/13 03:36:22;;;;;;;10.05;6.30;;;;;;;;;;5063056;28;20056;-64
2023/05/13 03:38:49;;;;;;;12.35;6.57;;;;;;;;;;5070522;28;20048;-65
2023/05/13 03:41:18;;;;;;;9.52;6.20;;;;;;;;;;5073260;28;20051;-64
2023/05/13 03:43:45;;;;;;;9.07;5.70;;;;;;;;;;5066923;28;20056;-64
2023/05/13 03:46:12;;;;;;;11.10;6.18;;;;;;;;;;5059174;28;20084;-64
2023/05/13 03:48:40;;;;;;;11.27;5.38;;;;;;;;;;5066960;28;20559;-65
2023/05/13 03:51:07;;;;;;;9.07;5.15;;;;;;;;;;5067018;28;20068;-65
2023/05/13 03:53:34;;;;;;;7.70;4.95;;;;;;;;;;5069422;28;20123;-67
2023/05/13 03:56:01;;;;;;;7.43;4.45;;;;;;;;;;5069390;28;20403;-65
2023/05/13 03:58:30;;;;;;;6.85;4.28;;;;;;;;;;5069793;28;20056;-65
2023/05/13 04:00:57;;;;;;;7.40;4.60;;;;;;;;;;5068617;28;20226;-64
2023/05/13 04:03:24;;;;;;;10.27;4.40;;;;;;;;;;5062908;28;20055;-65
2023/05/13 04:05:52;;;;;;;6.50;4.72;;;;;;;;;;5066005;28;20080;-65
2023/05/13 04:08:19;;;;;;;8.98;4.50;;;;;;;;;;5070430;28;20055;-65
2023/05/13 04:10:46;;;;;;;7.00;4.45;;;;;;;;;;5065241;28;20053;-65
2023/05/13 04:13:14;;;;;;;10.35;4.50;;;;;;;;;;5068234;28;20507;-64
2023/05/13 04:15:42;;;;;;;9.93;4.70;;;;;;;;;;5068615;28;20139;-64
2023/05/13 04:18:10;;;;;;;9.57;4.60;;;;;;;;;;5068985;28;20052;-65
2023/05/13 04:20:38;;;;;;;9.88;4.45;;;;;;;;;;5066897;28;20052;-64
2023/05/13 04:23:05;;;;;;;8.10;4.57;;;;;;;;;;5070019;28;20447;-64
2023/05/13 04:25:33;;;;;;;10.20;4.47;;;;;;;;;;5067483;28;20049;-65
2023/05/13 04:28:00;;;;;;;9.65;4.25;;;;;;;;;;5071903;28;20048;-65
2023/05/13 04:30:27;;;;;;;8.82;4.72;;;;;;;;;;5066138;28;20463;-64
2023/05/13 04:32:56;;;;;;;6.07;4.03;;;;;;;;;;5069747;28;20052;-65
2023/05/13 04:35:23;;;;;;;8.25;4.65;;;;;;;;;;5068658;28;20045;-65
2023/05/13 04:37:50;;;;;;;6.35;4.30;;;;;;;;;;5068841;28;20055;-65
2023/05/13 04:40:17;;;;;;;6.97;4.53;;;;;;;;;;5069394;28;20052;-65
2023/05/13 04:42:45;;;;;;;9.82;5.00;;;;;;;;;;5067690;28;20105;-64
2023/05/13 04:45:12;;;;;;;11.23;5.00;;;;;;;;;;5062278;28;20110;-64
2023/05/13 04:47:39;;;;;;;9.75;4.25;;;;;;;;;;5066518;28;20056;-64
2023/05/13 04:50:08;;;;;;;9.77;4.22;;;;;;;;;;5069128;28;20394;-64
2023/05/13 04:52:36;;;;;;;6.40;4.28;;;;;;;;;;5075930;28;20060;-65
2023/05/13 04:55:03;;;;;;;8.82;4.22;;;;;;;;;;5068834;28;20049;-64
2023/05/13 04:57:31;;;;;;;6.85;4.65;;;;;;;;;;5067039;28;20040;-65
2023/05/13 04:59:58;;;;;;;7.13;4.25;;;;;;;;;;5064859;28;20052;-64
2023/05/13 05:02:25;;;;;;;9.38;4.30;;;;;;;;;;5068861;28;20053;-65
2023/05/13 05:04:53;;;;;;;6.50;4.25;;;;;;;;;;5066720;28;20049;-65
2023/05/13 05:07:21;;;;;;;7.53;4.50;;;;;;;;;;5065577;28;20048;-65
2023/05/13 05:09:49;;;;;;;8.88;4.93;;;;;;;;;;5063299;28;20044;-65
2023/05/13 05:12:16;;;;;;;6.90;4.63;;;;;;;;;;5066359;28;20424;-65
2023/05/13 05:14:43;;;;;;;9.48;4.88;;;;;;;;;;5068356;28;20053;-65
2023/05/13 05:17:10;;;;;;;7.10;4.72;;;;;;;;;;5069100;28;20056;-65
2023/05/13 05:19:38;;;;;;;8.93;4.47;;;;;;;;;;5071526;28;20041;-65
2023/05/13 05:22:05;;;;;;;6.25;4.45;;;;;;;;;;5069943;28;20071;-65
2023/05/13 05:24:34;;;;;;;5.82;3.92;;;;;;;;;;5072215;28;20515;-65
2023/05/13 05:27:01;;;;;;;8.02;4.45;;;;;;;;;;5068040;28;20052;-65
2023/05/13 05:29:28;;;;;;;5.25;3.83;;;;;;;;;;5064429;28;20048;-65
2023/05/13 05:31:56;;;;;;;6.50;3.65;;;;;;;;;;5067502;28;20639;-65
2023/05/13 05:34:23;;;;;;;7.57;3.63;;;;;;;;;;5069955;28;20048;-65
2023/05/13 05:36:50;;;;;;;6.43;3.88;;;;;;;;;;5070159;28;20071;-64
2023/05/13 05:39:17;;;;;;;6.20;3.90;;;;;;;;;;5069888;28;20048;-65
2023/05/13 05:41:46;;;;;;;8.05;3.67;;;;;;;;;;5069328;28;20516;-64
2023/05/13 05:44:14;;;;;;;6.05;3.65;;;;;;;;;;5063891;28;20106;-64
2023/05/13 05:46:41;;;;;;;6.30;3.75;;;;;;;;;;5066567;28;20055;-65
2023/05/13 05:49:08;;;;;;;6.85;3.72;;;;;;;;;;5068270;28;20450;-65
2023/05/13 05:51:35;;;;;;;8.00;4.15;;;;;;;;;;5071777;28;20040;-66
2023/05/13 05:54:02;;;;;;;5.97;3.08;;;;;;;;;;5071126;28;20051;-66
2023/05/13 05:56:30;;;;;;;5.38;3.58;;;;;;;;;;5071598;28;20040;-66
2023/05/13 05:58:58;;;;;;;7.13;3.13;;;;;;;;;;5070966;28;20040;-66
2023/05/13 06:01:25;;;;;;;5.28;2.85;;;;;;;;;;5071780;28;20049;-65
2023/05/13 06:03:53;;;;;;;6.72;3.30;;;;;;;;;;5069635;28;20041;-65
2023/05/13 06:06:21;;;;;;;4.15;3.00;;;;;;;;;;5071352;28;20139;-66
2023/05/13 06:08:48;;;;;;;6.07;3.03;;;;;;;;;;5070263;28;20490;-65
2023/05/13 06:11:15;;;;;;;4.95;2.60;;;;;;;;;;5070843;28;20045;-65
2023/05/13 06:13:42;;;;;;;4.82;2.83;;;;;;;;;;5067152;28;20052;-65
2023/05/13 06:16:11;;;;;;;5.00;3.20;;;;;;;;;;5068181;28;20384;-65
2023/05/13 06:18:39;;;;;;;6.97;2.97;;;;;;;;;;5066149;28;20067;-65
2023/05/13 06:21:06;;;;;;;4.50;2.70;;;;;;;;;;5069791;28;20108;-66
2023/05/13 06:23:33;;;;;;;5.72;2.67;;;;;;;;;;5062752;28;20519;-65
2023/05/13 06:26:00;;;;;;;5.57;2.75;;;;;;;;;;5069490;28;20048;-65
2023/05/13 06:28:28;;;;;;;4.13;2.95;;;;;;;;;;5067491;28;20355;-66
2023/05/13 06:30:55;;;;;;;4.70;3.03;;;;;;;;;;5069546;28;20052;-65
2023/05/13 06:33:24;;;;;;;4.00;2.85;;;;;;;;;;5068785;28;20076;-65
2023/05/13 06:35:52;;;;;;;8.85;3.30;;;;;;;;;;5070457;28;20485;-65
2023/05/13 06:38:19;;;;;;;4.28;2.63;;;;;;;;;;5069662;28;20116;-65
2023/05/13 06:40:46;;;;;;;3.72;2.67;;;;;;;;;;5070372;28;20100;-64
2023/05/13 06:43:15;;;;;;;7.72;3.17;;;;;;;;;;5070330;28;20056;-65
2023/05/13 06:45:42;;;;;;;5.25;3.30;;;;;;;;;;5068154;28;20452;-65
2023/05/13 06:48:09;;;;;;;4.82;2.78;;;;;;;;;;5062376;28;20072;-65
2023/05/13 06:50:38;;;;;;;4.00;2.92;;;;;;;;;;5061831;28;20055;-65
2023/05/13 06:53:05;;;;;;;5.43;2.95;;;;;;;;;;5065158;28;20070;-65
2023/05/13 06:55:40;;;;;;;5.60;2.92;;;;;;;;;;5061170;28;20045;-65
2023/05/13 06:58:07;;;;;;;3.22;2.58;;;;;;;;;;5070900;28;20053;-65
2023/05/13 07:00:37;;;;;;;4.50;2.53;;;;;;;;;;5061749;28;20527;-65
2023/05/13 07:03:05;;;;;;;3.85;2.70;;;;;;;;;;5068395;28;20084;-65
2023/05/13 07:05:32;;;;;;;6.25;2.95;;;;;;;;;;5060332;28;20064;-66
2023/05/13 07:08:05;;;;;;;4.68;2.50;;;;;;;;;;5062673;28;20411;-66
2023/05/13 07:10:32;;;;;;;3.05;2.60;;;;;;;;;;5070720;28;20052;-66
2023/05/13 07:13:00;;;;;;;4.93;2.95;;;;;;;;;;5064218;28;20044;-66
2023/05/13 07:15:27;;;;;;;4.93;2.95;;;;;;;;;;5068139;28;20053;-65
2023/05/13 07:17:54;;;;;;;5.60;3.10;;;;;;;;;;5070218;28;20166;-65
2023/05/13 07:20:21;;;;;;;5.10;3.00;;;;;;;;;;5070023;28;20052;-65
2023/05/13 07:22:49;;;;;;;5.13;2.97;;;;;;;;;;5069181;28;20519;-65
2023/05/13 07:25:18;;;;;;;9.15;3.17;;;;;;;;;;5068498;28;20071;-65
2023/05/13 07:27:46;;;;;;;4.15;3.08;;;;;;;;;;5068562;28;20040;-66
2023/05/13 07:30:14;;;;;;;3.30;2.50;;;;;;;;;;5065672;28;20056;-66
2023/05/13 07:32:41;;;;;;;3.95;2.72;;;;;;;;;;5065958;28;20074;-66
2023/05/13 07:35:09;;;;;;;3.70;2.70;;;;;;;;;;5068124;28;20471;-66
2023/05/13 07:37:36;;;;;;;4.93;2.97;;;;;;;;;;5068089;28;20228;-65
2023/05/13 07:40:04;;;;;;;4.43;2.60;;;;;;;;;;5069402;28;20044;-65
2023/05/13 07:42:33;;;;;;;3.97;2.83;;;;;;;;;;5068583;28;20514;-66
2023/05/13 07:45:00;;;;;;;3.67;2.83;;;;;;;;;;5067570;28;20049;-66
2023/05/13 07:47:28;;;;;;;4.57;2.90;;;;;;;;;;5069422;28;20491;-65
2023/05/13 07:49:55;;;;;;;4.13;2.47;;;;;;;;;;5068874;28;20052;-66
2023/05/13 07:52:22;;;;;;;6.50;3.00;;;;;;;;;;5070284;28;20158;-66
2023/05/13 07:54:50;;;;;;;3.50;2.60;;;;;;;;;;5069673;28;20044;-65
2023/05/13 07:57:17;;;;;;;5.43;2.97;;;;;;;;;;5069364;28;20497;-66
2023/05/13 07:59:46;;;;;;;4.22;2.97;;;;;;;;;;5068462;28;20480;-66
2023/05/13 08:02:13;;;;;;;6.20;2.75;;;;;;;;;;5074029;28;20048;-65
2023/05/13 08:04:40;;;;;;;4.50;2.47;;;;;;;;;;5074951;28;20127;-66
2023/05/13 08:07:07;;;;;;;28.45;5.47;;;;;;;;;;5067670;28;20247;-67
2023/05/13 08:09:35;;;;;;;5.07;2.90;;;;;;;;;;5069763;28;20475;-66
2023/05/13 08:12:02;;;;;;;6.10;2.80;;;;;;;;;;5066681;28;20055;-66
2023/05/13 08:14:29;;;;;;;4.40;2.60;;;;;;;;;;5068133;28;20475;-66
2023/05/13 08:21:46;;;;;;;5.65;3.17;;;;;;;;;;5100383;27;20737;-66
2023/05/13 08:24:13;;;;;;;5.90;2.85;;;;;;;;;;5082603;28;20048;-65
2023/05/13 08:26:41;;;;;;;3.80;2.90;;;;;;;;;;5079360;28;20052;-65
2023/05/13 08:29:11;;;;;;;7.25;3.05;;;;;;;;;;5079208;28;20400;-66
2023/05/13 08:31:39;;;;;;;5.60;2.97;;;;;;;;;;5083280;28;20064;-66
2023/05/13 08:34:06;;;;;;;3.92;2.80;;;;;;;;;;5082748;28;20052;-66
2023/05/13 08:36:33;;;;;;;4.60;2.97;;;;;;;;;;5083506;28;20060;-66
2023/05/13 08:39:02;;;;;;;5.57;2.95;;;;;;;;;;5085402;28;20048;-66
2023/05/13 08:41:30;;;;;;;3.97;2.83;;;;;;;;;;5084496;28;20052;-65
2023/05/13 08:43:58;;;;;;;5.85;3.22;;;;;;;;;;5081016;28;20088;-66
2023/05/13 08:46:27;;;;;;;5.80;3.05;;;;;;;;;;5081145;28;20400;-66
2023/05/13 08:48:55;;;;;;;8.60;3.38;;;;;;;;;;5084436;28;20104;-65
2023/05/13 08:51:22;;;;;;;5.15;2.90;;;;;;;;;;5084985;28;20079;-66
2023/05/13 08:53:50;;;;;;;6.50;2.88;;;;;;;;;;5086887;28;20419;-65
2023/05/13 08:56:21;;;;;;;3.72;2.35;;;;;;;;;;5085018;28;20132;-66
2023/05/13 08:58:48;;;;;;;4.75;2.72;;;;;;;;;;5087519;28;20056;-66
2023/05/13 09:01:15;;;;;;;4.07;3.25;;;;;;;;;;5085039;28;20040;-64
2023/05/13 09:03:50;;;;;;;4.97;3.45;;;;;;;;;;5081184;28;20518;-65
2023/05/13 09:06:18;;;;;;;4.80;2.70;;;;;;;;;;5084692;28;20391;-65
2023/05/13 09:08:45;;;;;;;4.85;2.50;;;;;;;;;;5089115;28;20051;-65
2023/05/13 09:11:12;;;;;;;5.03;2.95;;;;;;;;;;5086358;28;20044;-65
2023/05/13 09:13:43;;;;;;;3.78;2.78;;;;;;;;;;5085902;28;20060;-64
2023/05/13 09:16:11;;;;;;;4.00;2.80;;;;;;;;;;5084071;28;20040;-65
2023/05/13 09:18:39;;;;;;;3.63;2.28;;;;;;;;;;5084431;28;20388;-65
2023/05/13 09:21:23;;;;;;;3.95;2.70;;;;;;;;;;5085741;28;20053;-65
2023/05/13 09:23:50;;;;;;;3.90;2.58;;;;;;;;;;5084714;28;20084;-66
2023/05/13 09:26:27;;;;;;;3.70;2.50;;;;;;;;;;5084625;28;20063;-65
2023/05/13 09:29:14;;;;;;;3.90;2.45;;;;;;;;;;5085055;28;20056;-65
2023/05/13 09:31:41;;;;;;;4.15;2.60;;;;;;;;;;5079499;28;20052;-65
2023/05/13 09:34:09;;;;;;;4.68;2.90;;;;;;;;;;5071743;28;20545;-65
2023/05/13 09:36:37;;;;;;;7.05;2.95;;;;;;;;;;5068828;28;20048;-65
2023/05/13 09:39:04;;;;;;;5.15;2.83;;;;;;;;;;5060345;28;20040;-64
2023/05/13 09:41:31;;;;;;;4.68;2.78;;;;;;;;;;5069532;28;20049;-65
2023/05/13 09:43:59;;;;;;;5.07;2.67;;;;;;;;;;5066439;28;20045;-66
2023/05/13 09:46:28;;;;;;;5.57;3.10;;;;;;;;;;5065240;28;20048;-66
2023/05/13 09:48:57;;;;;;;5.30;2.70;;;;;;;;;;5070641;28;20052;-65
2023/05/13 09:51:29;;;;;;;3.50;2.65;;;;;;;;;;5069897;28;20487;-65
2023/05/13 09:54:03;;;;;;;4.97;2.58;;;;;;;;;;5066024;28;20071;-64
2023/05/13 09:56:30;;;;;;;5.07;3.17;;;;;;;;;;5065350;28;20147;-64
2023/05/13 09:58:58;;;;;;;4.35;2.55;;;;;;;;;;5060336;28;20049;-64
2023/05/13 10:01:25;;;;;;;5.20;2.58;;;;;;;;;;5059671;28;20048;-64
2023/05/13 10:03:55;;;;;;;5.30;2.90;;;;;;;;;;5060073;28;20045;-64
2023/05/13 10:06:23;;;;;;;4.40;2.95;;;;;;;;;;5061800;28;20076;-69
2023/05/13 10:08:51;;;;;;;4.70;3.33;;;;;;;;;;5065894;28;20131;-69
2023/05/13 10:11:20;;;;;;;5.43;3.28;;;;;;;;;;5068935;28;20067;-69
2023/05/13 10:13:50;;;;;;;6.63;2.88;;;;;;;;;;5062672;28;20064;-68
2023/05/13 10:16:18;;;;;;;4.53;3.05;;;;;;;;;;5065548;28;20055;-69
2023/05/13 10:18:46;;;;;;;5.88;2.92;;;;;;;;;;5062981;28;20040;-70
2023/05/13 10:21:14;;;;;;;6.70;3.35;;;;;;;;;;5059437;28;20045;-69
2023/05/13 10:23:42;;;;;;;5.03;2.85;;;;;;;;;;5063009;28;20052;-69
2023/05/13 10:26:10;;;;;;;5.40;2.92;;;;;;;;;;5063020;28;20167;-70
2023/05/13 10:28:37;;;;;;;5.07;2.90;;;;;;;;;;5066483;28;20056;-70
2023/05/13 10:31:04;;;;;;;4.43;2.85;;;;;;;;;;5060925;28;20045;-70
2023/05/13 10:33:31;;;;;;;4.90;3.05;;;;;;;;;;5064558;28;20056;-70
2023/05/13 10:36:06;;;;;;;6.43;3.20;;;;;;;;;;5062707;28;20051;-71
2023/05/13 10:38:43;;;;;;;4.03;2.83;;;;;;;;;;5066381;28;20060;-70
2023/05/13 10:41:12;;;;;;;3.45;2.63;;;;;;;;;;5055212;28;20404;-72
2023/05/13 10:43:40;;;;;;;6.32;3.15;;;;;;;;;;5065070;28;20056;-70
2023/05/13 10:46:08;;;;;;;5.78;3.28;;;;;;;;;;5064705;28;20114;-70
2023/05/13 10:48:39;;;;;;;6.82;3.70;;;;;;;;;;5069189;28;20104;-71
2023/05/13 10:51:07;;;;;;;7.07;3.30;;;;;;;;;;5063423;28;20157;-71
2023/05/13 10:53:43;;;;;;;5.97;3.40;;;;;;;;;;5070934;28;20118;-70
2023/05/13 10:56:11;;;;;;;5.07;3.22;;;;;;;;;;5069775;28;20044;-70
2023/05/13 10:58:38;;;;;;;4.68;3.78;;;;;;;;;;5066362;28;20065;-71
2023/05/13 11:01:18;;;;;;;4.97;3.25;;;;;;;;;;5067756;28;20063;-71
2023/05/13 11:03:52;;;;;;;6.28;3.63;;;;;;;;;;5067638;28;20049;-71
2023/05/13 11:06:21;;;;;;;4.70;3.40;;;;;;;;;;5067393;28;20075;-71
2023/05/13 11:08:50;;;;;;;8.45;3.60;;;;;;;;;;5063485;28;20055;-71
2023/05/13 11:11:18;;;;;;;5.97;3.70;;;;;;;;;;5064471;28;20079;-71
2023/05/13 11:13:45;;;;;;;5.05;3.78;;;;;;;;;;5064402;28;20072;-71
2023/05/13 11:16:14;;;;;;;4.60;3.53;;;;;;;;;;5067331;28;20049;-71
2023/05/13 11:18:41;;;;;;;5.25;3.80;;;;;;;;;;5062152;28;20063;-71
2023/05/13 11:21:09;;;;;;;7.18;3.83;;;;;;;;;;5074497;28;20096;-71
2023/05/13 11:23:51;;;;;;;5.28;3.40;;;;;;;;;;5068793;28;20083;-71
2023/05/13 11:26:20;;;;;;;4.40;3.60;;;;;;;;;;5064829;28;20045;-71
2023/05/13 11:28:54;;;;;;;6.22;3.47;;;;;;;;;;5068810;28;20083;-72
2023/05/13 11:31:22;;;;;;;4.43;3.42;;;;;;;;;;5066104;28;20052;-72
2023/05/13 11:34:04;;;;;;;5.57;3.92;;;;;;;;;;5061516;28;20045;-72
2023/05/13 11:36:32;;;;;;;6.43;4.00;;;;;;;;;;5061307;28;20508;-72
2023/05/13 11:39:05;;;;;;;5.55;3.97;;;;;;;;;;5065595;28;20139;-72
2023/05/13 11:41:35;;;;;;;5.35;4.07;;;;;;;;;;5069136;28;20041;-71
2023/05/13 11:44:03;;;;;;;4.78;3.65;;;;;;;;;;5067226;28;20052;-72
2023/05/13 11:46:30;;;;;;;6.53;3.75;;;;;;;;;;5063397;28;20519;-72
2023/05/13 11:48:57;;;;;;;4.80;3.83;;;;;;;;;;5069970;28;20040;-72
2023/05/13 11:51:25;;;;;;;4.40;3.50;;;;;;;;;;5066153;28;20044;-71
2023/05/13 11:53:53;;;;;;;6.53;3.47;;;;;;;;;;5066827;28;20052;-72
2023/05/13 11:56:20;;;;;;;5.65;3.63;;;;;;;;;;5066613;28;20161;-72
2023/05/13 11:58:48;;;;;;;4.65;3.80;;;;;;;;;;5068476;28;20059;-72
2023/05/13 12:01:16;;;;;;;4.63;3.72;;;;;;;;;;5065304;28;20057;-72
2023/05/13 12:03:43;;;;;;;5.68;3.15;;;;;;;;;;5069664;28;20411;-72
2023/05/13 12:06:10;;;;;;;5.13;3.90;;;;;;;;;;5067098;28;20041;-71
2023/05/13 12:08:44;;;;;;;6.25;3.67;;;;;;;;;;5067429;28;20060;-72
2023/05/13 12:11:12;;;;;;;6.20;3.55;;;;;;;;;;5068940;28;20056;-71
2023/05/13 12:13:39;;;;;;;4.47;3.53;;;;;;;;;;5066364;28;20057;-72
2023/05/13 12:16:09;;;;;;;5.97;3.40;;;;;;;;;;5068516;28;20052;-72
2023/05/13 12:18:37;;;;;;;4.68;3.05;;;;;;;;;;5068788;28;20134;-72
2023/05/13 12:21:14;;;;;;;5.25;3.38;;;;;;;;;;5068564;28;20519;-73
2023/05/13 12:23:42;;;;;;;3.88;3.10;;;;;;;;;;5066753;28;20143;-72
2023/05/13 12:26:09;;;;;;;5.15;3.08;;;;;;;;;;5067264;28;20063;-72
2023/05/13 12:28:36;;;;;;;4.13;2.90;;;;;;;;;;5063618;28;20048;-72
2023/05/13 12:31:04;;;;;;;3.97;3.30;;;;;;;;;;5065855;28;20049;-72
2023/05/13 12:33:33;;;;;;;4.85;3.35;;;;;;;;;;5068105;28;20079;-71
2023/05/13 12:36:18;;;;;;;5.55;3.25;;;;;;;;;;5066386;28;20397;-71
2023/05/13 12:38:55;;;;;;;4.40;3.47;;;;;;;;;;5069791;28;20110;-71
2023/05/13 12:41:24;;;;;;;4.60;3.47;;;;;;;;;;5065429;28;20045;-72
2023/05/13 12:43:52;;;;;;;5.32;3.10;;;;;;;;;;5062200;28;20057;-73
2023/05/13 12:46:19;;;;;;;6.05;3.55;;;;;;;;;;5059276;28;20047;-72
2023/05/13 12:48:47;;;;;;;4.32;3.10;;;;;;;;;;5065523;28;20090;-73
2023/05/13 12:51:15;;;;;;;4.50;3.70;;;;;;;;;;5066961;28;20063;-72
2023/05/13 12:53:42;;;;;;;4.47;3.22;;;;;;;;;;5069512;28;20052;-72
2023/05/13 12:56:09;;;;;;;6.28;3.42;;;;;;;;;;5065826;28;20052;-72
2023/05/13 12:58:36;;;;;;;6.25;3.53;;;;;;;;;;5066829;28;20091;-72
2023/05/13 13:01:04;;;;;;;6.70;3.28;;;;;;;;;;5067831;28;20056;-72
2023/05/13 13:03:31;;;;;;;4.53;3.10;;;;;;;;;;5067501;28;20044;-72
2023/05/13 13:06:00;;;;;;;5.07;4.18;;;;;;;;;;5068480;28;20096;-72
2023/05/13 13:08:27;;;;;;;4.43;3.60;;;;;;;;;;5083526;28;20055;-72
2023/05/13 13:10:54;;;;;;;5.13;3.15;;;;;;;;;;5070870;28;20059;-71
2023/05/13 13:13:22;;;;;;;3.78;3.35;;;;;;;;;;5072094;28;20056;-73
2023/05/13 13:15:49;;;;;;;6.80;3.67;;;;;;;;;;5068778;28;20040;-72
2023/05/13 13:18:16;;;;;;;4.07;3.60;;;;;;;;;;5072418;28;20145;-72
2023/05/13 13:20:43;;;;;;;5.55;3.78;;;;;;;;;;5070338;28;20063;-72
2023/05/13 13:23:12;;;;;;;5.72;3.60;;;;;;;;;;5072360;28;20058;-72
2023/05/13 13:25:40;;;;;;;4.50;3.20;;;;;;;;;;5070147;28;20052;-72
2023/05/13 13:28:07;;;;;;;3.67;3.28;;;;;;;;;;5071974;28;20044;-73
2023/05/13 13:30:34;;;;;;;4.07;3.10;;;;;;;;;;5072154;28;20059;-72
2023/05/13 13:33:01;;;;;;;7.70;4.15;;;;;;;;;;5070547;28;20056;-72
2023/05/13 13:35:29;;;;;;;4.93;3.45;;;;;;;;;;5072213;28;20322;-71
2023/05/13 13:37:56;;;;;;;3.75;3.20;;;;;;;;;;5069220;28;20055;-73
2023/05/13 13:40:24;;;;;;;5.28;3.50;;;;;;;;;;5062572;28;20056;-72
2023/05/13 13:42:52;;;;;;;4.30;3.00;;;;;;;;;;5069336;28;20057;-72
2023/05/13 13:45:22;;;;;;;7.20;3.28;;;;;;;;;;5062833;28;20060;-72
2023/05/13 13:47:50;;;;;;;4.43;3.40;;;;;;;;;;5068594;28;20080;-72
2023/05/13 13:50:17;;;;;;;4.47;3.30;;;;;;;;;;5070478;28;20044;-72
2023/05/13 13:52:45;;;;;;;4.57;3.30;;;;;;;;;;5066254;28;20048;-74
2023/05/13 13:55:13;;;;;;;5.72;3.25;;;;;;;;;;5069737;28;20060;-73
2023/05/13 13:57:41;;;;;;;4.90;3.20;;;;;;;;;;5074935;28;20530;-73
2023/05/13 14:00:09;;;;;;;3.42;3.10;;;;;;;;;;5070181;28;20052;-72
2023/05/13 14:02:37;;;;;;;4.47;3.20;;;;;;;;;;5069683;28;20044;-68
2023/05/13 14:05:04;;;;;;;3.15;2.80;;;;;;;;;;5071469;28;20055;-68
2023/05/13 14:07:31;;;;;;;4.57;3.30;;;;;;;;;;5071661;28;20051;-68
2023/05/13 14:09:59;;;;;;;5.53;3.15;;;;;;;;;;5067715;28;20049;-68
2023/05/13 14:12:26;;;;;;;6.13;3.55;;;;;;;;;;5068092;28;20419;-69
2023/05/13 14:14:54;;;;;;;4.00;3.58;;;;;;;;;;5061392;28;20052;-68
2023/05/13 14:17:22;;;;;;;9.68;3.90;;;;;;;;;;5067450;28;20056;-68
2023/05/13 14:19:50;;;;;;;3.90;3.50;;;;;;;;;;5065504;28;20056;-69
2023/05/13 14:22:18;;;;;;;4.30;3.28;;;;;;;;;;5068692;28;20480;-68
2023/05/13 14:24:45;;;;;;;4.20;3.55;;;;;;;;;;5070579;28;20045;-69
2023/05/13 14:27:12;;;;;;;3.80;3.25;;;;;;;;;;5066469;28;20063;-69
2023/05/13 14:29:39;;;;;;;3.42;3.08;;;;;;;;;;5070850;28;20499;-69
2023/05/13 14:32:08;;;;;;;4.78;3.10;;;;;;;;;;5067854;28;20040;-69
2023/05/13 14:34:35;;;;;;;3.70;3.00;;;;;;;;;;5069006;28;20052;-68
2023/05/13 14:37:02;;;;;;;3.63;3.08;;;;;;;;;;5067461;28;20053;-69
2023/05/13 14:39:30;;;;;;;4.65;3.20;;;;;;;;;;5068782;28;20048;-69
2023/05/13 14:41:57;;;;;;;3.83;3.42;;;;;;;;;;5071105;28;20472;-69
2023/05/13 14:44:24;;;;;;;4.88;3.20;;;;;;;;;;5071620;28;20044;-69
2023/05/13 14:46:51;;;;;;;3.88;3.10;;;;;;;;;;5064795;28;20078;-70
2023/05/13 14:49:20;;;;;;;3.95;3.50;;;;;;;;;;5065805;28;20474;-69
2023/05/13 14:51:47;;;;;;;4.15;3.60;;;;;;;;;;5064178;28;20055;-69